Ride Results

Spirit of the Song Ride & Festival (31-05-2014)
Ride distance: 80.0 km

Outcomes - Spirit of the Song Ride & Festival (31-05-2014)
Division No. of Entries Retired / DNE Completed Withdrawn Ineligible V/O Percentage Completed
HW 6 - 4 1 - 1 66.67%
MW 10 - 10 - - - 100.00%
LW 4 - 4 - - - 100.00%
JN 2 - 2 - - - 100.00%
Totals 22 - 20 1 - 1 90.91%
Results - Spirit of the Song Ride & Festival (31-05-2014)
No. Rider Horse Place Time Leg Speeds Total
Km/Hr
H/R bpm
Heavyweight
68 Christopher Schofield Bradali Ice N Rain 1 6:46:00 12.6, 11.0 11.82 40, 45, 59 (Avg:52)
72 Alan Mackinder Jezabelle Sweet Dreams 2 (BC) 7:04:00 12.1, 10.5 11.32 35, 39, 44 (Avg:41)
73 Phil Coleman Rainbows Reach Snowfyre 3 8:45:00 9.7, 8.5 9.14 40, 46, 52 (Avg:49)
60 Steve Broadbent Glendhu Moonshine 4 9:13:00 10.2, 7.5 8.68 35, 40, 60 (Avg:50)
62 Dieter Schuelein Shiraz Heart Rate L2 0:00:00 9.8, 6.6 - 48, 55, 66 (Avg:60)
66 Allan Caslick A'Landell Soul Withdrawn L1 0:00:00 - - 35, 41 (Avg:41)
Middleweight
71 Andrew Mackinder Sundown Park Cariad 1 (BC) 6:34:00 12.1, 12.1 12.18 28, 37, 43 (Avg:40)
64 Sharon Foster Sharabel Maleka 2 6:37:00 12.6, 11.5 12.09 34, 44, 54 (Avg:49)
69 David Player Ryton Pipes of Peace 3 7:24:00 11.6, 10.0 10.81 32, 37, 52 (Avg:44)
80 Jennifer Gilbertson Coolahlee Park Saraba 4 8:39:00 9.8, 8.6 9.25 40, 44, 49 (Avg:46)
70 Ava Pellizzari Zzariava Valentino 4 8:39:00 9.8, 8.6 9.25 29, 46, 54 (Avg:50)
77 Elizabeth Moir Kenya s Gold 6 8:49:00 9.6, 8.5 9.07 28, 35, 60 (Avg:47)
76 Fiona Coddington Sterling Bey 7 9:14:00 9.3, 8.0 8.66 44, 49, 59 (Avg:54)
78 Brad Dillon Banfield Reign 8 9:15:00 9.3, 8.0 8.65 49, 50, 56 (Avg:53)
65 Madeline Cotton A'Landell Charlie 9 9:26:00 9.0, 7.9 8.48 44, 42, 52 (Avg:47)
63 Trevor Knight Kenya 10 11:00:00 8.9, 6.1 7.27 40, 41, 45 (Avg:43)
Lightweight
74 Ros Ryan Rainbows Reach Scout 1 (BC) 8:45:00 9.7, 8.5 9.14 40, 35, 39 (Avg:37)
79 Lyn Dillon Banfield Khamsin 2 9:15:00 9.3, 8.0 8.65 39, 40, 49 (Avg:44)
67 Shannen Thorsby Sienna Kaptivating 3 9:26:00 9.0, 7.9 8.48 40, 41, 46 (Avg:43)
61 Renee Schneider Badia Just Rosie 4 9:33:00 9.8, 7.2 8.38 36, 40, 49 (Avg:44)
Junior
75 Cybele Coddington Star Cross Imperial 1 (BC) 9:14:00 9.3, 8.0 8.66 37, 45, 58 (Avg:51)
84 Mia Bodewes Booramby Jacob 2 10:37:00 7.5, 7.5 7.54 31, 42, 54 (Avg:48)